createdAt,value
2022-07-25T00:11:28.183Z,980.1
2022-07-25T00:25:56.147Z,980
2022-07-25T00:40:25.087Z,979.9
2022-07-25T00:54:52.522Z,979.8
2022-07-25T01:09:19.746Z,979.7
2022-07-25T01:23:47.381Z,979.5
2022-07-25T01:38:15.802Z,979.4
2022-07-25T01:52:43.191Z,979.2
2022-07-25T02:07:10.957Z,979.1
2022-07-25T02:21:38.553Z,979.1
2022-07-25T02:36:05.813Z,979
2022-07-25T02:50:31.997Z,978.8
2022-07-25T03:05:00.147Z,978.8
2022-07-25T03:19:27.366Z,978.6
2022-07-25T03:33:54.920Z,978.6
2022-07-25T03:48:22.678Z,978.5
2022-07-25T04:02:48.287Z,978.3
2022-07-25T04:17:16.503Z,978.2
2022-07-25T04:31:44.198Z,978.1
2022-07-25T04:46:11.261Z,978
2022-07-25T05:00:40.596Z,977.7
2022-07-25T05:15:08.371Z,977.7
2022-07-25T05:29:38.060Z,977.6
2022-07-25T05:44:08.323Z,977.5
2022-07-25T05:58:36.846Z,977.3
2022-07-25T06:13:07.693Z,977.3
2022-07-25T06:27:37.551Z,977.3
2022-07-25T06:42:07.042Z,977.3
2022-07-25T06:56:37.367Z,977.1
2022-07-25T07:11:07.039Z,977
2022-07-25T07:25:39.138Z,977
2022-07-25T07:40:18.818Z,977
2022-07-25T07:54:59.694Z,976.8
2022-07-25T08:09:25.706Z,976.8
2022-07-25T08:23:56.043Z,976.7
2022-07-25T08:38:25.294Z,976.7
2022-07-25T08:52:47.440Z,976.8
2022-07-25T09:07:11.662Z,976.6
2022-07-25T09:21:40.927Z,976.6
2022-07-25T09:36:07.158Z,976.5
2022-07-25T09:50:33.815Z,976.6
2022-07-25T10:05:01.994Z,976.7
2022-07-25T10:19:28.772Z,976.7
2022-07-25T10:33:56.529Z,976.9
2022-07-25T10:48:21.761Z,977
2022-07-25T11:02:48.082Z,976.7
2022-07-25T11:17:13.510Z,976.9
2022-07-25T11:31:44.691Z,977
2022-07-25T11:46:13.427Z,976.7
2022-07-25T12:00:37.467Z,976.6
2022-07-25T12:15:02.487Z,976.7
2022-07-25T12:29:30.120Z,976.7
2022-07-25T12:43:57.720Z,976.8
2022-07-25T12:58:25.987Z,976.8
2022-07-25T13:12:51.521Z,976.9
2022-07-25T13:27:16.900Z,976.9
2022-07-25T13:41:41.488Z,977.1
2022-07-25T13:56:06.921Z,977.2
2022-07-25T14:10:34.489Z,977.2
2022-07-25T14:25:01.376Z,977.1
2022-07-25T14:39:29.794Z,977.3
2022-07-25T14:53:54.707Z,977.4
2022-07-25T15:08:21.930Z,977.2
2022-07-25T15:22:47.478Z,977.5
2022-07-25T15:37:14.839Z,977.6
2022-07-25T15:51:41.169Z,977.6
2022-07-25T16:06:09.262Z,977.5
2022-07-25T16:20:33.605Z,977.8
2022-07-25T16:34:58.881Z,978.3
2022-07-25T16:49:25.871Z,978.4
2022-07-25T17:03:53.906Z,978.4
2022-07-25T17:18:20.024Z,978.3
2022-07-25T17:32:46.303Z,978.2
2022-07-25T17:47:13.399Z,978.2
2022-07-25T18:01:40.374Z,978.4
2022-07-25T18:16:05.907Z,978.6
2022-07-25T18:30:38.098Z,978.7
2022-07-25T18:45:02.779Z,978.7
2022-07-25T18:59:26.664Z,978.9
2022-07-25T19:13:53.560Z,979
2022-07-25T19:28:20.956Z,979.1
2022-07-25T19:42:47.979Z,979.2
2022-07-25T19:57:16.521Z,979.3
2022-07-25T20:11:43.038Z,979.4
2022-07-25T20:26:09.409Z,979.4
2022-07-25T20:40:38.961Z,979.6
2022-07-25T20:55:07.261Z,979.7
2022-07-25T21:09:33.170Z,979.9
2022-07-25T21:23:59.703Z,980
2022-07-25T21:38:35.214Z,980.1
2022-07-25T21:52:56.188Z,980.3
2022-07-25T22:07:24.212Z,980.3
2022-07-25T22:21:52.002Z,980.4
2022-07-25T22:36:20.142Z,980.6
2022-07-25T22:50:48.957Z,980.7
2022-07-25T23:05:16.091Z,980.8
2022-07-25T23:19:43.367Z,980.8
2022-07-25T23:34:10.109Z,980.9
2022-07-25T23:48:37.645Z,980.8
